createdAt,value
2022-12-17T00:02:22.067Z,98151.00
2022-12-17T00:06:41.222Z,98154.00
2022-12-17T00:11:00.599Z,98155.00
2022-12-17T00:15:19.982Z,98159.00
2022-12-17T00:19:39.223Z,98154.00
2022-12-17T00:23:59.295Z,98161.00
2022-12-17T00:28:18.588Z,98159.00
2022-12-17T00:32:37.925Z,98162.00
2022-12-17T00:36:57.417Z,98173.00
2022-12-17T00:41:16.900Z,98174.00
2022-12-17T00:45:36.253Z,98168.00
2022-12-17T00:49:56.271Z,98175.00
2022-12-17T00:54:15.682Z,98175.00
2022-12-17T00:58:35.221Z,98179.00
2022-12-17T01:02:54.841Z,98187.00
2022-12-17T01:07:15.913Z,98191.00
2022-12-17T01:11:35.357Z,98194.00
2022-12-17T01:15:54.868Z,98214.00
2022-12-17T01:20:16.273Z,98206.00
2022-12-17T01:24:35.877Z,98212.00
2022-12-17T01:28:55.312Z,98218.00
2022-12-17T01:33:24.151Z,98223.00
2022-12-17T01:37:43.593Z,98224.00
2022-12-17T01:42:03.195Z,98233.00
2022-12-17T01:46:22.500Z,98229.00
2022-12-17T01:50:45.709Z,98232.00
2022-12-17T01:55:06.138Z,98239.00
2022-12-17T01:59:27.054Z,98235.00
2022-12-17T02:03:46.553Z,98232.00
2022-12-17T02:08:21.591Z,98238.00
2022-12-17T02:12:47.648Z,98242.00
2022-12-17T02:17:09.813Z,98240.00
2022-12-17T02:21:30.850Z,98256.00
2022-12-17T02:25:57.386Z,98258.00
2022-12-17T02:30:23.271Z,98254.00
2022-12-17T02:34:42.641Z,98251.00
2022-12-17T02:39:02.142Z,98266.00
2022-12-17T02:43:22.473Z,98264.00
2022-12-17T02:47:42.970Z,98270.00
2022-12-17T02:52:02.819Z,98261.00
2022-12-17T02:56:22.739Z,98286.00
2022-12-17T03:00:42.287Z,98266.00
2022-12-17T03:05:15.357Z,98259.00
2022-12-17T03:09:22.767Z,98270.00
2022-12-17T03:13:45.923Z,98273.00
2022-12-17T03:18:05.412Z,98280.00
2022-12-17T03:22:25.199Z,98268.00
2022-12-17T03:26:44.852Z,98279.00
2022-12-17T03:31:04.822Z,98289.00
2022-12-17T03:35:24.571Z,98286.00
2022-12-17T03:39:44.027Z,98283.00
2022-12-17T03:44:03.561Z,98288.00
2022-12-17T03:48:28.020Z,98289.00
2022-12-17T03:52:47.352Z,98315.00
2022-12-17T03:57:09.541Z,98308.00
2022-12-17T04:01:28.346Z,98302.00
2022-12-17T04:05:48.089Z,98302.00
2022-12-17T04:10:07.356Z,98300.00
2022-12-17T04:14:26.646Z,98294.00
2022-12-17T04:18:46.161Z,98310.00
2022-12-17T04:23:05.593Z,98313.00
2022-12-17T04:27:25.044Z,98322.00
2022-12-17T04:31:44.745Z,98313.00
2022-12-17T04:36:04.005Z,98314.00
2022-12-17T04:40:24.160Z,98099.00
2022-12-17T04:44:43.383Z,98327.00
2022-12-17T04:49:02.819Z,98335.00
2022-12-17T04:53:23.798Z,98330.00
2022-12-17T04:57:43.119Z,98327.00
2022-12-17T05:02:02.695Z,98358.00
2022-12-17T05:06:22.521Z,98349.00
2022-12-17T05:10:41.863Z,98344.00
2022-12-17T05:15:01.339Z,98356.00
2022-12-17T05:19:20.700Z,98351.00
2022-12-17T05:23:40.170Z,98358.00
2022-12-17T05:27:59.572Z,98356.00
2022-12-17T05:32:19.020Z,98367.00
2022-12-17T05:36:38.620Z,98363.00
2022-12-17T05:40:58.555Z,98378.00
2022-12-17T05:45:18.162Z,98380.00
2022-12-17T05:49:37.380Z,98380.00
2022-12-17T05:53:56.740Z,98370.00
2022-12-17T05:58:21.703Z,98384.00
2022-12-17T06:02:41.802Z,98389.00
2022-12-17T06:07:01.522Z,98401.00
2022-12-17T06:11:21.120Z,98404.00
2022-12-17T06:15:41.128Z,98402.00
2022-12-17T06:20:00.547Z,98417.00
2022-12-17T06:24:19.984Z,98424.00
2022-12-17T06:28:41.226Z,98429.00
2022-12-17T06:33:02.332Z,98432.00
2022-12-17T06:37:21.622Z,98437.00
2022-12-17T06:41:41.112Z,98440.00
2022-12-17T06:46:00.487Z,98443.00
2022-12-17T06:50:19.808Z,98439.00
2022-12-17T06:54:39.196Z,98454.00
2022-12-17T06:58:58.575Z,98449.00
2022-12-17T07:03:18.085Z,98457.00
2022-12-17T07:07:37.525Z,98464.00
2022-12-17T07:11:57.646Z,98471.00
2022-12-17T07:16:01.005Z,98474.00
2022-12-17T07:20:21.875Z,98489.00
2022-12-17T07:24:42.113Z,98491.00
2022-12-17T07:29:02.136Z,98502.00
2022-12-17T07:33:25.722Z,98516.00
2022-12-17T07:37:46.393Z,98515.00
2022-12-17T07:42:07.253Z,98522.00
2022-12-17T07:46:13.633Z,98526.00
2022-12-17T07:50:33.492Z,98519.00
2022-12-17T07:54:53.515Z,98538.00
2022-12-17T07:59:14.318Z,98546.00
2022-12-17T08:03:35.465Z,98550.00
2022-12-17T08:07:57.614Z,98542.00
2022-12-17T08:12:20.575Z,98558.00
2022-12-17T08:16:41.360Z,98562.00
2022-12-17T08:21:03.045Z,98578.00
2022-12-17T08:25:24.493Z,98578.00
2022-12-17T08:29:45.192Z,98578.00
2022-12-17T08:34:08.163Z,98581.00
2022-12-17T08:38:28.416Z,98590.00
2022-12-17T08:42:49.060Z,98587.00
2022-12-17T08:47:08.257Z,98585.00
2022-12-17T08:51:28.896Z,98603.00
2022-12-17T08:55:48.601Z,98602.00
2022-12-17T09:00:08.067Z,98598.00
2022-12-17T09:04:27.623Z,98611.00
2022-12-17T09:08:46.789Z,98612.00
2022-12-17T09:13:06.252Z,98624.00
2022-12-17T09:17:25.628Z,98623.00
2022-12-17T09:21:46.682Z,98618.00
2022-12-17T09:26:13.673Z,98614.00
2022-12-17T09:30:33.467Z,98612.00
2022-12-17T09:34:52.861Z,98624.00
2022-12-17T09:39:13.028Z,98626.00
2022-12-17T09:43:57.781Z,98627.00
2022-12-17T09:48:49.957Z,98636.00
2022-12-17T09:53:09.646Z,98631.00
2022-12-17T09:57:31.891Z,98639.00
2022-12-17T10:01:52.806Z,98641.00
2022-12-17T10:06:16.730Z,98629.00
2022-12-17T10:10:38.738Z,98632.00
2022-12-17T10:14:58.053Z,98637.00
2022-12-17T10:19:17.479Z,98642.00
2022-12-17T10:23:45.620Z,98644.00
2022-12-17T10:28:04.923Z,98652.00
2022-12-17T10:32:34.585Z,98649.00
2022-12-17T10:36:54.042Z,98654.00
2022-12-17T10:41:13.900Z,98655.00
2022-12-17T10:45:45.485Z,98655.00
2022-12-17T10:49:55.162Z,98649.00
2022-12-17T10:54:14.800Z,98664.00
2022-12-17T10:58:40.774Z,98660.00
2022-12-17T11:03:05.457Z,98661.00
2022-12-17T11:07:28.314Z,98656.00
2022-12-17T11:11:47.935Z,98664.00
2022-12-17T11:16:10.930Z,98667.00
2022-12-17T11:20:43.642Z,98661.00
2022-12-17T11:25:06.747Z,98664.00
2022-12-17T11:29:32.014Z,98671.00
2022-12-17T11:34:01.471Z,98670.00
2022-12-17T11:38:41.760Z,98667.00
2022-12-17T11:43:04.808Z,98669.00
2022-12-17T11:47:43.531Z,98679.00
2022-12-17T11:52:13.105Z,98683.00
2022-12-17T11:56:57.958Z,98686.00
2022-12-17T12:01:39.509Z,98685.00
2022-12-17T12:06:14.594Z,98686.00
2022-12-17T12:10:40.997Z,98683.00
2022-12-17T12:15:19.727Z,98675.00
2022-12-17T12:19:54.697Z,98672.00
2022-12-17T12:24:27.002Z,98683.00
2022-12-17T12:28:50.492Z,98683.00
2022-12-17T12:33:29.011Z,98683.00
2022-12-17T12:37:49.296Z,98682.00
2022-12-17T12:42:05.367Z,98682.00
2022-12-17T12:46:37.164Z,98680.00
2022-12-17T12:51:06.545Z,98678.00
2022-12-17T12:55:26.544Z,98684.00
2022-12-17T12:59:48.432Z,98683.00
2022-12-17T13:04:11.200Z,98679.00
2022-12-17T13:08:23.917Z,98677.00
2022-12-17T13:12:45.848Z,98677.00
2022-12-17T13:16:53.817Z,98671.00
2022-12-17T13:20:59.070Z,98681.00
2022-12-17T13:25:18.424Z,98675.00
2022-12-17T13:29:29.165Z,98673.00
2022-12-17T13:33:51.794Z,98673.00
2022-12-17T13:38:02.654Z,98682.00
2022-12-17T13:42:04.112Z,98682.00
2022-12-17T13:46:05.380Z,98695.00
2022-12-17T13:50:36.721Z,98688.00
2022-12-17T13:54:34.558Z,98674.00
2022-12-17T13:58:36.320Z,98677.00
2022-12-17T14:02:38.642Z,98680.00
2022-12-17T14:06:39.905Z,98689.00
2022-12-17T14:10:47.732Z,98675.00
2022-12-17T14:14:53.726Z,98679.00
2022-12-17T14:18:57.465Z,98673.00
2022-12-17T14:23:14.207Z,98676.00
2022-12-17T14:27:25.257Z,98687.00
2022-12-17T14:31:28.597Z,98691.00
2022-12-17T14:35:36.830Z,98688.00
2022-12-17T14:39:41.873Z,98688.00
2022-12-17T14:44:02.915Z,98694.00
2022-12-17T14:48:06.267Z,98695.00
2022-12-17T14:52:12.883Z,98711.00
2022-12-17T14:56:23.071Z,98705.00
2022-12-17T15:00:24.093Z,98706.00
2022-12-17T15:04:25.276Z,98709.00
2022-12-17T15:08:30.189Z,98713.00
2022-12-17T15:12:31.289Z,98720.00
2022-12-17T15:16:32.416Z,98728.00
2022-12-17T15:20:33.494Z,98716.00
2022-12-17T15:24:37.102Z,98713.00
2022-12-17T15:28:39.320Z,98719.00
2022-12-17T15:32:40.835Z,98719.00
2022-12-17T15:36:41.952Z,98732.00
2022-12-17T15:40:43.098Z,98723.00
2022-12-17T15:44:44.989Z,98729.00
2022-12-17T15:48:50.487Z,98735.00
2022-12-17T15:52:49.534Z,98743.00
2022-12-17T15:56:54.550Z,98738.00
2022-12-17T16:00:56.442Z,98743.00
2022-12-17T16:04:57.406Z,98748.00
2022-12-17T16:08:58.793Z,98739.00
2022-12-17T16:12:59.939Z,98747.00
2022-12-17T16:17:00.870Z,98772.00
2022-12-17T16:21:04.190Z,98760.00
2022-12-17T16:25:06.351Z,98768.00
2022-12-17T16:29:07.486Z,98768.00
2022-12-17T16:33:08.633Z,98778.00
2022-12-17T16:37:10.146Z,98775.00
2022-12-17T16:41:12.293Z,98767.00
2022-12-17T16:45:13.304Z,98776.00
2022-12-17T16:49:17.669Z,98780.00
2022-12-17T16:53:19.402Z,98785.00
2022-12-17T16:57:20.968Z,98781.00
2022-12-17T17:01:27.930Z,98787.00
2022-12-17T17:05:33.505Z,98793.00
2022-12-17T17:09:34.769Z,98785.00
2022-12-17T17:13:36.731Z,98794.00
2022-12-17T17:17:55.909Z,98799.00
2022-12-17T17:21:43.720Z,98791.00
2022-12-17T17:25:58.470Z,98800.00
2022-12-17T17:29:47.786Z,98809.00
2022-12-17T17:33:50.541Z,98797.00
2022-12-17T17:37:52.026Z,98808.00
2022-12-17T17:41:53.152Z,98809.00
2022-12-17T17:45:58.266Z,98808.00
2022-12-17T17:49:59.265Z,98805.00
2022-12-17T17:54:01.895Z,98809.00
2022-12-17T17:58:02.920Z,98792.00
2022-12-17T18:02:04.281Z,98806.00
2022-12-17T18:06:08.011Z,98809.00
2022-12-17T18:10:09.906Z,98808.00
2022-12-17T18:14:12.658Z,98816.00
2022-12-17T18:18:14.989Z,98820.00
2022-12-17T18:22:18.583Z,98823.00
2022-12-17T18:26:22.088Z,98826.00
2022-12-17T18:30:23.976Z,98823.00
2022-12-17T18:34:26.968Z,98829.00
2022-12-17T18:38:28.267Z,98833.00
2022-12-17T18:42:48.008Z,98820.00
2022-12-17T18:46:49.150Z,98824.00
2022-12-17T18:50:50.241Z,98827.00
2022-12-17T18:54:51.391Z,98836.00
2022-12-17T18:58:54.412Z,98831.00
2022-12-17T19:02:55.641Z,98821.00
2022-12-17T19:06:56.804Z,98823.00
2022-12-17T19:11:05.120Z,98829.00
2022-12-17T19:15:07.247Z,98831.00
2022-12-17T19:19:10.770Z,98826.00
2022-12-17T19:23:12.139Z,98825.00
2022-12-17T19:27:13.494Z,98818.00
2022-12-17T19:31:15.854Z,98826.00
2022-12-17T19:35:17.057Z,98833.00
2022-12-17T19:39:19.500Z,98819.00
2022-12-17T19:43:20.740Z,98832.00
2022-12-17T19:47:23.273Z,98835.00
2022-12-17T19:51:27.534Z,98822.00
2022-12-17T19:55:28.805Z,98818.00
2022-12-17T19:59:29.915Z,98846.00
2022-12-17T20:03:31.133Z,98825.00
2022-12-17T20:07:32.474Z,98834.00
2022-12-17T20:11:35.775Z,98828.00
2022-12-17T20:15:37.691Z,98842.00
2022-12-17T20:19:38.846Z,98838.00
2022-12-17T20:23:40.220Z,98843.00
2022-12-17T20:27:43.379Z,98850.00
2022-12-17T20:31:49.701Z,98859.00
2022-12-17T20:35:50.385Z,98866.00
2022-12-17T20:39:51.886Z,98871.00
2022-12-17T20:43:54.216Z,98870.00
2022-12-17T20:47:55.397Z,98859.00
2022-12-17T20:51:56.660Z,98874.00
2022-12-17T20:56:03.682Z,98879.00
2022-12-17T21:00:05.731Z,98870.00
2022-12-17T21:04:07.270Z,98861.00
2022-12-17T21:08:08.740Z,98868.00
2022-12-17T21:12:11.772Z,98864.00
2022-12-17T21:16:16.306Z,98861.00
2022-12-17T21:20:17.366Z,98870.00
2022-12-17T21:24:18.950Z,98864.00
2022-12-17T21:28:25.636Z,98865.00
2022-12-17T21:32:33.333Z,98874.00
2022-12-17T21:36:31.817Z,98886.00
2022-12-17T21:40:35.218Z,98884.00
2022-12-17T21:44:36.527Z,98891.00
2022-12-17T21:48:42.155Z,98903.00
2022-12-17T21:52:43.573Z,98912.00
2022-12-17T21:56:44.729Z,98915.00
2022-12-17T22:00:46.609Z,98911.00
2022-12-17T22:04:48.615Z,98924.00
2022-12-17T22:08:49.858Z,98920.00
2022-12-17T22:13:11.420Z,98917.00
2022-12-17T22:17:12.449Z,98914.00
2022-12-17T22:21:13.706Z,98916.00
2022-12-17T22:25:15.467Z,98910.00
2022-12-17T22:29:21.333Z,98911.00
2022-12-17T22:34:06.604Z,98917.00
2022-12-17T22:40:39.409Z,98922.00
2022-12-17T22:44:33.896Z,98915.00
2022-12-17T22:45:50.084Z,98907.00
2022-12-17T22:49:51.119Z,98919.00
2022-12-17T22:53:53.332Z,98923.00
2022-12-17T22:57:54.815Z,98924.00
2022-12-17T23:01:56.170Z,98905.00
2022-12-17T23:06:12.863Z,98916.00
2022-12-17T23:10:13.916Z,98917.00
2022-12-17T23:14:15.777Z,98909.00
2022-12-17T23:18:16.790Z,98909.00
2022-12-17T23:22:22.183Z,98902.00
2022-12-17T23:26:24.239Z,98898.00
2022-12-17T23:30:25.454Z,98902.00
2022-12-17T23:34:26.477Z,98912.00
2022-12-17T23:38:27.551Z,98915.00
2022-12-17T23:42:28.596Z,98912.00
2022-12-17T23:46:30.313Z,98927.00
2022-12-17T23:50:31.448Z,98917.00
2022-12-17T23:54:32.550Z,98930.00
2022-12-17T23:58:34.386Z,98929.00
